sensor_id;sensor_type;location;lat;lon;timestamp;pressure;altitude;pressure_sealevel;temperature;humidity
6389;BME280;3227;42.654;23.360;2024-03-29T00:01:50;94211.06;;;13.71;54.15
6389;BME280;3227;42.654;23.360;2024-03-29T00:04:16;94183.63;;;13.68;54.14
6389;BME280;3227;42.654;23.360;2024-03-29T00:06:42;94206.50;;;13.87;52.75
6389;BME280;3227;42.654;23.360;2024-03-29T00:09:07;94203.78;;;13.94;53.07
6389;BME280;3227;42.654;23.360;2024-03-29T00:11:34;94200.34;;;13.94;53.22
6389;BME280;3227;42.654;23.360;2024-03-29T00:14:00;94205.59;;;13.89;53.73
6389;BME280;3227;42.654;23.360;2024-03-29T00:16:26;94201.34;;;13.87;52.95
6389;BME280;3227;42.654;23.360;2024-03-29T00:18:52;94211.06;;;13.71;53.76
6389;BME280;3227;42.654;23.360;2024-03-29T00:21:18;94206.88;;;13.65;54.24
6389;BME280;3227;42.654;23.360;2024-03-29T00:23:43;94220.50;;;13.70;54.38
6389;BME280;3227;42.654;23.360;2024-03-29T00:26:09;94216.22;;;13.69;53.00
6389;BME280;3227;42.654;23.360;2024-03-29T00:28:36;94220.53;;;13.69;54.15
6389;BME280;3227;42.654;23.360;2024-03-29T00:31:02;94231.78;;;13.63;54.96
6389;BME280;3227;42.654;23.360;2024-03-29T00:33:28;94190.25;;;13.34;55.06
6389;BME280;3227;42.654;23.360;2024-03-29T00:35:54;94225.97;;;13.52;55.12
6389;BME280;3227;42.654;23.360;2024-03-29T00:38:20;94231.25;;;13.43;54.88
6389;BME280;3227;42.654;23.360;2024-03-29T00:40:45;94226.41;;;13.25;54.96
6389;BME280;3227;42.654;23.360;2024-03-29T00:43:11;94231.59;;;13.22;55.57
6389;BME280;3227;42.654;23.360;2024-03-29T00:45:38;94233.22;;;13.27;55.75
6389;BME280;3227;42.654;23.360;2024-03-29T00:48:04;94226.44;;;13.22;54.74
6389;BME280;3227;42.654;23.360;2024-03-29T00:50:30;94227.94;;;13.35;55.06
6389;BME280;3227;42.654;23.360;2024-03-29T00:52:56;94222.81;;;13.35;54.88
6389;BME280;3227;42.654;23.360;2024-03-29T00:55:22;94229.00;;;13.23;55.17
6389;BME280;3227;42.654;23.360;2024-03-29T00:57:47;94237.56;;;13.25;55.14
6389;BME280;3227;42.654;23.360;2024-03-29T01:00:13;94234.88;;;13.33;54.58
6389;BME280;3227;42.654;23.360;2024-03-29T01:02:41;94235.63;;;13.38;55.23
6389;BME280;3227;42.654;23.360;2024-03-29T01:05:07;94238.22;;;13.38;55.15
6389;BME280;3227;42.654;23.360;2024-03-29T01:07:33;94126.16;;;12.62;54.88
6389;BME280;3227;42.654;23.360;2024-03-29T01:09:59;94131.22;;;12.68;55.03
6389;BME280;3227;42.654;23.360;2024-03-29T01:12:25;94242.44;;;13.42;55.63
6389;BME280;3227;42.654;23.360;2024-03-29T01:14:51;94237.38;;;13.34;55.19
6389;BME280;3227;42.654;23.360;2024-03-29T01:17:17;94242.50;;;13.36;55.58
6389;BME280;3227;42.654;23.360;2024-03-29T01:19:44;94247.72;;;13.33;55.68
6389;BME280;3227;42.654;23.360;2024-03-29T01:22:10;94248.59;;;13.32;55.60
6389;BME280;3227;42.654;23.360;2024-03-29T01:24:40;94257.09;;;13.37;55.27
6389;BME280;3227;42.654;23.360;2024-03-29T01:27:06;94248.50;;;13.38;55.56
6389;BME280;3227;42.654;23.360;2024-03-29T01:29:32;94247.63;;;13.41;54.59
6389;BME280;3227;42.654;23.360;2024-03-29T01:31:58;94244.22;;;13.37;55.48
6389;BME280;3227;42.654;23.360;2024-03-29T01:34:23;94258.63;;;13.50;54.32
6389;BME280;3227;42.654;23.360;2024-03-29T01:36:50;94233.06;;;13.37;54.30
6389;BME280;3227;42.654;23.360;2024-03-29T01:39:16;94256.84;;;13.52;54.61
6389;BME280;3227;42.654;23.360;2024-03-29T01:41:42;94260.22;;;13.57;53.58
6389;BME280;3227;42.654;23.360;2024-03-29T01:44:08;94267.88;;;13.59;54.38
6389;BME280;3227;42.654;23.360;2024-03-29T01:46:36;94272.16;;;13.61;54.06
6389;BME280;3227;42.654;23.360;2024-03-29T01:49:04;94274.72;;;13.61;54.12
6389;BME280;3227;42.654;23.360;2024-03-29T01:51:31;94149.03;;;12.80;54.00
6389;BME280;3227;42.654;23.360;2024-03-29T01:54:00;94277.44;;;13.52;54.15
6389;BME280;3227;42.654;23.360;2024-03-29T01:56:27;94276.66;;;13.49;54.42
6389;BME280;3227;42.654;23.360;2024-03-29T01:58:55;94291.28;;;13.45;54.94
6389;BME280;3227;42.654;23.360;2024-03-29T02:01:24;94291.38;;;13.39;54.28
6389;BME280;3227;42.654;23.360;2024-03-29T02:03:52;94304.16;;;13.45;54.85
6389;BME280;3227;42.654;23.360;2024-03-29T02:06:19;94307.66;;;13.40;55.03
6389;BME280;3227;42.654;23.360;2024-03-29T02:08:47;94308.66;;;13.31;54.84
6389;BME280;3227;42.654;23.360;2024-03-29T02:11:18;94313.81;;;13.31;55.56
6389;BME280;3227;42.654;23.360;2024-03-29T02:13:45;94327.53;;;13.30;54.52
6389;BME280;3227;42.654;23.360;2024-03-29T02:16:12;94313.09;;;13.18;54.58
6389;BME280;3227;42.654;23.360;2024-03-29T02:18:39;94336.09;;;13.32;55.77
6389;BME280;3227;42.654;23.360;2024-03-29T02:21:06;94342.09;;;13.31;55.46
6389;BME280;3227;42.654;23.360;2024-03-29T02:23:32;94341.28;;;13.26;55.05
6389;BME280;3227;42.654;23.360;2024-03-29T02:26:01;94347.28;;;13.26;55.03
6389;BME280;3227;42.654;23.360;2024-03-29T02:28:28;94326.88;;;13.14;54.83
6389;BME280;3227;42.654;23.360;2024-03-29T02:30:55;94363.53;;;13.33;55.70
6389;BME280;3227;42.654;23.360;2024-03-29T02:33:22;94368.88;;;13.16;56.16
6389;BME280;3227;42.654;23.360;2024-03-29T02:35:48;94381.75;;;13.15;56.01
6389;BME280;3227;42.654;23.360;2024-03-29T02:38:15;94386.06;;;13.14;55.77
6389;BME280;3227;42.654;23.360;2024-03-29T02:40:42;94381.84;;;13.06;56.24
6389;BME280;3227;42.654;23.360;2024-03-29T02:43:10;94387.78;;;13.11;55.68
6389;BME280;3227;42.654;23.360;2024-03-29T02:45:36;94385.25;;;13.08;56.60
6389;BME280;3227;42.654;23.360;2024-03-29T02:48:03;94386.97;;;13.07;56.77
6389;BME280;3227;42.654;23.360;2024-03-29T02:50:30;94387.84;;;13.05;58.07
6389;BME280;3227;42.654;23.360;2024-03-29T02:52:56;94395.72;;;12.92;57.98
6389;BME280;3227;42.654;23.360;2024-03-29T02:55:22;94394.91;;;12.86;57.71
6389;BME280;3227;42.654;23.360;2024-03-29T02:57:48;94381.47;;;12.61;59.59
6389;BME280;3227;42.654;23.360;2024-03-29T03:00:17;94394.47;;;12.47;59.77
6389;BME280;3227;42.654;23.360;2024-03-29T03:02:42;94398.88;;;12.35;60.47
6389;BME280;3227;42.654;23.360;2024-03-29T03:05:09;94393.75;;;12.35;60.36
6389;BME280;3227;42.654;23.360;2024-03-29T03:07:35;94398.91;;;12.30;60.83
6389;BME280;3227;42.654;23.360;2024-03-29T03:10:19;94403.25;;;12.24;61.16
6389;BME280;3227;42.654;23.360;2024-03-29T03:13:03;94400.69;;;12.24;60.86
6389;BME280;3227;42.654;23.360;2024-03-29T03:15:31;94406.69;;;12.21;61.30
6389;BME280;3227;42.654;23.360;2024-03-29T03:17:58;94410.09;;;12.23;60.97
6389;BME280;3227;42.654;23.360;2024-03-29T03:20:24;94404.13;;;12.19;61.33
6389;BME280;3227;42.654;23.360;2024-03-29T03:22:53;94412.06;;;11.89;62.48
6389;BME280;3227;42.654;23.360;2024-03-29T03:25:21;94428.34;;;11.88;63.13
6389;BME280;3227;42.654;23.360;2024-03-29T03:27:47;94424.00;;;11.98;62.25
6389;BME280;3227;42.654;23.360;2024-03-29T03:30:14;94424.84;;;11.98;62.95
6389;BME280;3227;42.654;23.360;2024-03-29T03:32:41;94430.91;;;11.88;63.19
6389;BME280;3227;42.654;23.360;2024-03-29T03:35:08;94373.81;;;11.47;63.45
6389;BME280;3227;42.654;23.360;2024-03-29T03:37:34;94443.81;;;11.79;63.98
6389;BME280;3227;42.654;23.360;2024-03-29T03:40:01;94374.75;;;11.36;63.36
6389;BME280;3227;42.654;23.360;2024-03-29T03:42:27;94452.34;;;11.84;62.79
6389;BME280;3227;42.654;23.360;2024-03-29T03:44:53;94462.50;;;11.98;62.71
6389;BME280;3227;42.654;23.360;2024-03-29T03:47:19;94456.47;;;12.06;62.22
6389;BME280;3227;42.654;23.360;2024-03-29T03:49:47;94471.81;;;12.14;61.85
6389;BME280;3227;42.654;23.360;2024-03-29T03:52:13;94344.81;;;11.38;61.36
6389;BME280;3227;42.654;23.360;2024-03-29T03:54:40;94459.78;;;12.22;61.38
6389;BME280;3227;42.654;23.360;2024-03-29T03:57:05;94475.13;;;12.28;60.66
6389;BME280;3227;42.654;23.360;2024-03-29T03:59:32;94467.53;;;12.17;61.35
6389;BME280;3227;42.654;23.360;2024-03-29T04:01:58;94480.38;;;12.16;61.96
6389;BME280;3227;42.654;23.360;2024-03-29T04:04:25;94475.19;;;12.24;61.79
6389;BME280;3227;42.654;23.360;2024-03-29T04:06:52;94472.50;;;12.36;61.40
6389;BME280;3227;42.654;23.360;2024-03-29T04:09:18;94483.69;;;12.30;60.87
6389;BME280;3227;42.654;23.360;2024-03-29T04:11:44;94486.25;;;12.29;61.31
6389;BME280;3227;42.654;23.360;2024-03-29T04:14:11;94488.00;;;12.27;61.32
6389;BME280;3227;42.654;23.360;2024-03-29T04:16:36;94497.38;;;12.34;60.68
6389;BME280;3227;42.654;23.360;2024-03-29T04:19:03;94502.41;;;12.44;60.15
6389;BME280;3227;42.654;23.360;2024-03-29T04:21:29;94509.25;;;12.51;59.49
6389;BME280;3227;42.654;23.360;2024-03-29T04:23:57;94510.03;;;12.55;59.89
6389;BME280;3227;42.654;23.360;2024-03-29T04:26:23;94519.41;;;12.62;59.34
6389;BME280;3227;42.654;23.360;2024-03-29T04:28:49;94518.50;;;12.69;59.10
6389;BME280;3227;42.654;23.360;2024-03-29T04:31:15;94385.63;;;11.79;59.27
6389;BME280;3227;42.654;23.360;2024-03-29T04:33:42;94392.44;;;11.82;59.18
6389;BME280;3227;42.654;23.360;2024-03-29T04:36:08;94510.88;;;12.58;58.71
6389;BME280;3227;42.654;23.360;2024-03-29T04:38:35;94528.84;;;12.60;59.40
6389;BME280;3227;42.654;23.360;2024-03-29T04:41:03;94533.97;;;12.65;60.09
6389;BME280;3227;42.654;23.360;2024-03-29T04:43:30;94531.13;;;12.95;58.54
6389;BME280;3227;42.654;23.360;2024-03-29T04:46:03;94544.47;;;13.35;56.97
6389;BME280;3227;42.654;23.360;2024-03-29T04:48:30;94552.66;;;13.70;56.26
6389;BME280;3227;42.654;23.360;2024-03-29T04:50:57;94559.69;;;14.25;55.53
6389;BME280;3227;42.654;23.360;2024-03-29T04:53:24;94563.09;;;14.87;53.07
6389;BME280;3227;42.654;23.360;2024-03-29T04:55:53;94562.06;;;15.48;50.73
6389;BME280;3227;42.654;23.360;2024-03-29T04:58:21;94564.59;;;15.95;49.16
6389;BME280;3227;42.654;23.360;2024-03-29T05:00:51;94564.66;;;16.34;48.31
6389;BME280;3227;42.654;23.360;2024-03-29T05:03:18;94568.38;;;16.62;47.36
6389;BME280;3227;42.654;23.360;2024-03-29T05:05:46;94544.09;;;16.68;46.77
6389;BME280;3227;42.654;23.360;2024-03-29T05:08:13;94562.63;;;16.87;46.10
6389;BME280;3227;42.654;23.360;2024-03-29T05:10:40;94564.41;;;16.83;46.19
6389;BME280;3227;42.654;23.360;2024-03-29T05:13:07;94568.97;;;17.09;45.90
6389;BME280;3227;42.654;23.360;2024-03-29T05:15:35;94559.50;;;17.42;45.10
6389;BME280;3227;42.654;23.360;2024-03-29T05:18:02;94582.38;;;17.93;44.03
6389;BME280;3227;42.654;23.360;2024-03-29T05:20:29;94574.44;;;18.28;43.35
6389;BME280;3227;42.654;23.360;2024-03-29T05:22:57;94469.84;;;17.98;42.30
6389;BME280;3227;42.654;23.360;2024-03-29T05:25:24;94583.56;;;18.98;41.17
6389;BME280;3227;42.654;23.360;2024-03-29T05:27:51;94586.84;;;19.04;41.65
6389;BME280;3227;42.654;23.360;2024-03-29T05:30:18;94588.97;;;19.19;41.30
6389;BME280;3227;42.654;23.360;2024-03-29T05:32:46;94593.09;;;19.26;40.37
6389;BME280;3227;42.654;23.360;2024-03-29T05:35:13;94594.44;;;19.36;40.97
6389;BME280;3227;42.654;23.360;2024-03-29T05:37:40;94594.84;;;19.52;40.40
6389;BME280;3227;42.654;23.360;2024-03-29T05:40:08;94599.19;;;19.51;40.52
6389;BME280;3227;42.654;23.360;2024-03-29T05:42:35;94600.47;;;19.64;41.07
6389;BME280;3227;42.654;23.360;2024-03-29T05:45:04;94597.25;;;19.83;40.32
6389;BME280;3227;42.654;23.360;2024-03-29T05:47:31;94598.56;;;19.94;40.17
6389;BME280;3227;42.654;23.360;2024-03-29T05:49:59;94597.19;;;20.09;39.21
6389;BME280;3227;42.654;23.360;2024-03-29T05:52:26;94591.38;;;20.26;39.45
6389;BME280;3227;42.654;23.360;2024-03-29T05:54:52;94585.47;;;20.21;39.01
6389;BME280;3227;42.654;23.360;2024-03-29T05:57:19;94589.81;;;20.20;40.04
6389;BME280;3227;42.654;23.360;2024-03-29T05:59:49;94600.41;;;20.40;39.74
6389;BME280;3227;42.654;23.360;2024-03-29T06:02:18;94588.38;;;20.60;40.40
6389;BME280;3227;42.654;23.360;2024-03-29T06:04:49;94604.06;;;21.03;39.34
6389;BME280;3227;42.654;23.360;2024-03-29T06:07:19;94610.22;;;21.24;36.89
6389;BME280;3227;42.654;23.360;2024-03-29T06:10:16;94594.94;;;21.37;36.24
6389;BME280;3227;42.654;23.360;2024-03-29T06:12:43;94594.50;;;21.47;35.97
6389;BME280;3227;42.654;23.360;2024-03-29T06:15:09;94606.69;;;21.67;36.01
6389;BME280;3227;42.654;23.360;2024-03-29T06:17:53;94612.53;;;21.52;35.16
6389;BME280;3227;42.654;23.360;2024-03-29T06:20:20;94619.09;;;21.62;36.75
6389;BME280;3227;42.654;23.360;2024-03-29T06:22:48;94616.09;;;21.71;35.17
6389;BME280;3227;42.654;23.360;2024-03-29T06:25:15;94618.97;;;21.65;35.76
6389;BME280;3227;42.654;23.360;2024-03-29T06:27:42;94611.59;;;21.54;35.66
6389;BME280;3227;42.654;23.360;2024-03-29T06:30:13;94604.16;;;21.00;36.00
6389;BME280;3227;42.654;23.360;2024-03-29T06:32:40;94604.75;;;21.08;36.99
6389;BME280;3227;42.654;23.360;2024-03-29T06:35:08;94614.09;;;21.36;35.67
6389;BME280;3227;42.654;23.360;2024-03-29T06:37:35;94614.50;;;21.47;37.00
6389;BME280;3227;42.654;23.360;2024-03-29T06:40:03;94619.97;;;21.41;37.01
6389;BME280;3227;42.654;23.360;2024-03-29T06:42:31;94621.25;;;21.31;35.87
6389;BME280;3227;42.654;23.360;2024-03-29T06:44:58;94618.22;;;21.19;35.65
6389;BME280;3227;42.654;23.360;2024-03-29T06:47:28;94513.53;;;20.43;36.23
6389;BME280;3227;42.654;23.360;2024-03-29T06:49:54;94623.16;;;21.04;35.88
6389;BME280;3227;42.654;23.360;2024-03-29T06:52:20;94625.00;;;21.00;35.59
6389;BME280;3227;42.654;23.360;2024-03-29T06:54:47;94607.47;;;20.37;36.07
6389;BME280;3227;42.654;23.360;2024-03-29T06:57:15;94615.03;;;20.18;36.89
6389;BME280;3227;42.654;23.360;2024-03-29T06:59:46;94630.31;;;20.27;38.16
6389;BME280;3227;42.654;23.360;2024-03-29T07:02:13;94641.63;;;20.26;37.00
6389;BME280;3227;42.654;23.360;2024-03-29T07:04:40;94640.69;;;20.54;37.15
6389;BME280;3227;42.654;23.360;2024-03-29T07:07:06;94638.94;;;20.54;36.24
6389;BME280;3227;42.654;23.360;2024-03-29T07:09:33;94641.53;;;20.54;36.70
6389;BME280;3227;42.654;23.360;2024-03-29T07:12:00;94591.16;;;20.32;35.99
6389;BME280;3227;42.654;23.360;2024-03-29T07:14:28;94649.00;;;20.15;36.35
6389;BME280;3227;42.654;23.360;2024-03-29T07:16:56;94657.44;;;20.22;36.40
6389;BME280;3227;42.654;23.360;2024-03-29T07:19:23;94555.38;;;19.65;37.17
6389;BME280;3227;42.654;23.360;2024-03-29T07:21:50;94644.31;;;20.49;37.10
6389;BME280;3227;42.654;23.360;2024-03-29T07:24:19;94654.03;;;20.68;35.84
6389;BME280;3227;42.654;23.360;2024-03-29T07:26:46;94652.50;;;20.62;36.27
6389;BME280;3227;42.654;23.360;2024-03-29T07:29:13;94657.44;;;20.70;36.58
6389;BME280;3227;42.654;23.360;2024-03-29T07:31:41;94654.19;;;20.86;36.57
6389;BME280;3227;42.654;23.360;2024-03-29T07:34:08;94654.09;;;20.89;36.14
6389;BME280;3227;42.654;23.360;2024-03-29T07:36:36;94650.28;;;20.98;35.23
6389;BME280;3227;42.654;23.360;2024-03-29T07:39:03;94656.06;;;21.06;36.33
6389;BME280;3227;42.654;23.360;2024-03-29T07:41:30;94651.44;;;21.13;36.15
6389;BME280;3227;42.654;23.360;2024-03-29T07:43:57;94597.41;;;20.96;35.81
6389;BME280;3227;42.654;23.360;2024-03-29T07:46:27;94633.69;;;21.24;35.67
6389;BME280;3227;42.654;23.360;2024-03-29T07:48:57;94525.91;;;20.60;35.24
6389;BME280;3227;42.654;23.360;2024-03-29T07:51:23;94637.28;;;21.42;36.36
6389;BME280;3227;42.654;23.360;2024-03-29T07:53:50;94645.91;;;21.66;35.58
6389;BME280;3227;42.654;23.360;2024-03-29T07:56:17;94640.03;;;21.81;35.18
6389;BME280;3227;42.654;23.360;2024-03-29T07:58:45;94554.00;;;21.39;34.73
6389;BME280;3227;42.654;23.360;2024-03-29T08:01:18;94629.94;;;21.93;35.63
6389;BME280;3227;42.654;23.360;2024-03-29T08:03:45;94546.84;;;21.44;35.16
6389;BME280;3227;42.654;23.360;2024-03-29T08:06:13;94653.81;;;22.25;34.58
6389;BME280;3227;42.654;23.360;2024-03-29T08:08:42;94633.59;;;22.30;34.28
6389;BME280;3227;42.654;23.360;2024-03-29T08:11:08;94631.91;;;22.29;33.29
6389;BME280;3227;42.654;23.360;2024-03-29T08:13:38;94631.56;;;22.16;34.44
6389;BME280;3227;42.654;23.360;2024-03-29T08:16:05;94647.06;;;22.21;34.57
6389;BME280;3227;42.654;23.360;2024-03-29T08:18:32;94631.13;;;22.27;35.43
6389;BME280;3227;42.654;23.360;2024-03-29T08:21:00;94627.69;;;22.45;33.87
6389;BME280;3227;42.654;23.360;2024-03-29T08:23:33;94636.38;;;22.46;33.11
6389;BME280;3227;42.654;23.360;2024-03-29T08:26:00;94631.63;;;22.35;33.23
6389;BME280;3227;42.654;23.360;2024-03-29T08:28:27;94631.91;;;22.29;33.15
6389;BME280;3227;42.654;23.360;2024-03-29T08:30:57;94621.28;;;22.13;34.14
6389;BME280;3227;42.654;23.360;2024-03-29T08:33:24;94618.06;;;22.27;34.72
6389;BME280;3227;42.654;23.360;2024-03-29T08:35:52;94622.75;;;22.39;34.70
6389;BME280;3227;42.654;23.360;2024-03-29T08:38:18;94620.50;;;22.50;33.79
6389;BME280;3227;42.654;23.360;2024-03-29T08:40:47;94612.09;;;22.44;33.57
6389;BME280;3227;42.654;23.360;2024-03-29T08:43:14;94618.16;;;22.44;34.43
6389;BME280;3227;42.654;23.360;2024-03-29T08:45:41;94601.47;;;22.67;34.19
6389;BME280;3227;42.654;23.360;2024-03-29T08:48:08;94603.63;;;22.77;33.02
6389;BME280;3227;42.654;23.360;2024-03-29T08:50:35;94569.69;;;22.57;33.44
6389;BME280;3227;42.654;23.360;2024-03-29T08:53:02;94607.56;;;22.86;33.00
6389;BME280;3227;42.654;23.360;2024-03-29T08:55:29;94607.63;;;22.85;32.89
6389;BME280;3227;42.654;23.360;2024-03-29T08:57:58;94494.47;;;22.28;32.79
6389;BME280;3227;42.654;23.360;2024-03-29T09:00:25;94595.13;;;22.91;32.98
6389;BME280;3227;42.654;23.360;2024-03-29T09:02:52;94588.00;;;22.76;32.15
6389;BME280;3227;42.654;23.360;2024-03-29T09:05:18;94571.63;;;22.72;32.43
6389;BME280;3227;42.654;23.360;2024-03-29T09:07:45;94580.72;;;22.83;32.66
6389;BME280;3227;42.654;23.360;2024-03-29T09:10:13;94585.22;;;22.98;31.99
6389;BME280;3227;42.654;23.360;2024-03-29T09:12:40;94577.75;;;23.09;31.92
6389;BME280;3227;42.654;23.360;2024-03-29T09:15:08;94565.44;;;23.11;31.88
6389;BME280;3227;42.654;23.360;2024-03-29T09:17:39;94562.53;;;23.17;31.42
6389;BME280;3227;42.654;23.360;2024-03-29T09:20:07;94454.22;;;22.51;30.26
6389;BME280;3227;42.654;23.360;2024-03-29T09:22:34;94557.25;;;23.00;30.23
6389;BME280;3227;42.654;23.360;2024-03-29T09:25:01;94560.03;;;22.97;29.97
6389;BME280;3227;42.654;23.360;2024-03-29T09:27:28;94568.81;;;22.96;29.31
6389;BME280;3227;42.654;23.360;2024-03-29T09:29:55;94562.22;;;23.06;29.65
6389;BME280;3227;42.654;23.360;2024-03-29T09:32:23;94562.06;;;23.09;29.29
6389;BME280;3227;42.654;23.360;2024-03-29T09:34:50;94554.22;;;23.09;30.90
6389;BME280;3227;42.654;23.360;2024-03-29T09:37:17;94536.22;;;23.03;29.44
6389;BME280;3227;42.654;23.360;2024-03-29T09:39:45;94543.16;;;23.04;28.29
6389;BME280;3227;42.654;23.360;2024-03-29T09:42:16;94532.84;;;23.01;28.98
6389;BME280;3227;42.654;23.360;2024-03-29T09:44:44;94539.13;;;22.97;29.00
6389;BME280;3227;42.654;23.360;2024-03-29T09:47:14;94505.75;;;22.85;29.64
6389;BME280;3227;42.654;23.360;2024-03-29T09:49:44;94522.97;;;22.89;29.07
6389;BME280;3227;42.654;23.360;2024-03-29T09:52:11;94527.78;;;22.79;30.00
6389;BME280;3227;42.654;23.360;2024-03-29T09:54:38;94522.97;;;22.89;29.69
6389;BME280;3227;42.654;23.360;2024-03-29T09:57:05;94522.38;;;23.01;29.58
6389;BME280;3227;42.654;23.360;2024-03-29T09:59:32;94506.19;;;23.11;29.26
6389;BME280;3227;42.654;23.360;2024-03-29T10:02:00;94515.28;;;22.86;29.44
6389;BME280;3227;42.654;23.360;2024-03-29T10:04:31;94475.56;;;22.04;29.66
6389;BME280;3227;42.654;23.360;2024-03-29T10:07:00;94517.03;;;22.10;31.09
6389;BME280;3227;42.654;23.360;2024-03-29T10:09:27;94512.38;;;22.17;30.89
6389;BME280;3227;42.654;23.360;2024-03-29T10:11:57;94510.06;;;22.29;31.25
6389;BME280;3227;42.654;23.360;2024-03-29T10:14:24;94513.38;;;22.14;31.09
6389;BME280;3227;42.654;23.360;2024-03-29T10:16:52;94513.84;;;21.83;31.67
6389;BME280;3227;42.654;23.360;2024-03-29T10:19:19;94506.63;;;21.70;31.51
6389;BME280;3227;42.654;23.360;2024-03-29T10:21:47;94487.00;;;21.81;32.10
6389;BME280;3227;42.654;23.360;2024-03-29T10:24:16;94497.78;;;21.92;31.95
6389;BME280;3227;42.654;23.360;2024-03-29T10:26:43;94492.06;;;22.05;31.64
6389;BME280;3227;42.654;23.360;2024-03-29T10:29:10;94502.66;;;21.81;33.33
6389;BME280;3227;42.654;23.360;2024-03-29T10:31:37;94507.47;;;21.30;34.70
6389;BME280;3227;42.654;23.360;2024-03-29T10:34:04;94381.00;;;20.38;34.94
6389;BME280;3227;42.654;23.360;2024-03-29T10:36:31;94504.69;;;21.12;35.15
6389;BME280;3227;42.654;23.360;2024-03-29T10:39:02;94504.00;;;20.87;34.26
6389;BME280;3227;42.654;23.360;2024-03-29T10:41:33;94500.06;;;20.77;34.92
6389;BME280;3227;42.654;23.360;2024-03-29T10:44:02;94439.59;;;20.48;35.10
6389;BME280;3227;42.654;23.360;2024-03-29T10:46:31;94490.72;;;20.93;35.18
6389;BME280;3227;42.654;23.360;2024-03-29T10:49:00;94496.28;;;21.06;34.71
6389;BME280;3227;42.654;23.360;2024-03-29T10:51:27;94432.31;;;20.57;34.58
6389;BME280;3227;42.654;23.360;2024-03-29T10:53:55;94491.63;;;20.92;34.70
6389;BME280;3227;42.654;23.360;2024-03-29T10:56:26;94327.47;;;20.09;35.11
6389;BME280;3227;42.654;23.360;2024-03-29T10:59:02;94481.44;;;21.08;34.92
6389;BME280;3227;42.654;23.360;2024-03-29T11:01:33;94366.88;;;20.44;34.19
6389;BME280;3227;42.654;23.360;2024-03-29T11:04:11;94404.81;;;20.71;33.81
6389;BME280;3227;42.654;23.360;2024-03-29T11:06:40;94328.16;;;20.14;33.77
6389;BME280;3227;42.654;23.360;2024-03-29T11:09:30;94475.88;;;20.95;34.33
6389;BME280;3227;42.654;23.360;2024-03-29T11:11:58;94476.59;;;20.99;34.57
6389;BME280;3227;42.654;23.360;2024-03-29T11:14:37;94423.13;;;20.90;33.95
6389;BME280;3227;42.654;23.360;2024-03-29T11:17:06;94456.00;;;21.35;33.95
6389;BME280;3227;42.654;23.360;2024-03-29T11:19:35;94460.44;;;21.33;34.53
6389;BME280;3227;42.654;23.360;2024-03-29T11:22:03;94462.53;;;21.24;34.28
6389;BME280;3227;42.654;23.360;2024-03-29T11:24:31;94457.31;;;21.24;34.06
6389;BME280;3227;42.654;23.360;2024-03-29T11:27:07;94457.13;;;21.49;33.99
6389;BME280;3227;42.654;23.360;2024-03-29T11:29:35;94461.72;;;21.63;33.91
6389;BME280;3227;42.654;23.360;2024-03-29T11:32:06;94454.78;;;21.82;33.86
6389;BME280;3227;42.654;23.360;2024-03-29T11:34:32;94457.97;;;21.69;33.37
6389;BME280;3227;42.654;23.360;2024-03-29T11:37:06;94467.00;;;21.61;34.08
6389;BME280;3227;42.654;23.360;2024-03-29T11:39:33;94448.00;;;21.58;34.10
6389;BME280;3227;42.654;23.360;2024-03-29T11:42:01;94462.09;;;21.74;33.80
6389;BME280;3227;42.654;23.360;2024-03-29T11:44:28;94470.44;;;21.82;33.88
6389;BME280;3227;42.654;23.360;2024-03-29T11:46:58;94451.22;;;21.83;34.02
6389;BME280;3227;42.654;23.360;2024-03-29T11:49:25;94462.09;;;21.74;34.37
6389;BME280;3227;42.654;23.360;2024-03-29T11:52:01;94445.81;;;21.88;34.19
6389;BME280;3227;42.654;23.360;2024-03-29T11:54:29;94443.00;;;21.92;34.15
6389;BME280;3227;42.654;23.360;2024-03-29T11:56:55;94449.59;;;22.01;34.30
6389;BME280;3227;42.654;23.360;2024-03-29T11:59:23;94445.78;;;22.08;33.82
6389;BME280;3227;42.654;23.360;2024-03-29T12:01:51;94423.19;;;21.88;33.81
6389;BME280;3227;42.654;23.360;2024-03-29T12:04:21;94442.00;;;22.15;33.83
6389;BME280;3227;42.654;23.360;2024-03-29T12:06:49;94438.88;;;22.26;33.99
6389;BME280;3227;42.654;23.360;2024-03-29T12:09:16;94435.06;;;22.33;33.77
6389;BME280;3227;42.654;23.360;2024-03-29T12:11:43;94443.09;;;22.28;33.82
6389;BME280;3227;42.654;23.360;2024-03-29T12:14:12;94440.44;;;22.30;33.86
6389;BME280;3227;42.654;23.360;2024-03-29T12:16:43;94437.66;;;22.33;34.14
6389;BME280;3227;42.654;23.360;2024-03-29T12:19:10;94444.63;;;22.51;33.54
6389;BME280;3227;42.654;23.360;2024-03-29T12:21:38;94441.72;;;22.57;33.33
6389;BME280;3227;42.654;23.360;2024-03-29T12:24:05;94433.75;;;22.60;33.82
6389;BME280;3227;42.654;23.360;2024-03-29T12:26:33;94431.75;;;22.65;33.14
6389;BME280;3227;42.654;23.360;2024-03-29T12:29:00;94437.81;;;22.85;33.34
6389;BME280;3227;42.654;23.360;2024-03-29T12:31:27;94436.00;;;23.04;33.02
6389;BME280;3227;42.654;23.360;2024-03-29T12:33:53;94442.72;;;22.91;33.39
6389;BME280;3227;42.654;23.360;2024-03-29T12:36:23;94432.44;;;22.88;33.70
6389;BME280;3227;42.654;23.360;2024-03-29T12:38:54;94428.22;;;22.85;33.58
6389;BME280;3227;42.654;23.360;2024-03-29T12:41:23;94393.19;;;22.53;32.97
6389;BME280;3227;42.654;23.360;2024-03-29T12:43:50;94431.66;;;22.86;32.69
6389;BME280;3227;42.654;23.360;2024-03-29T12:46:17;94430.59;;;22.90;33.03
6389;BME280;3227;42.654;23.360;2024-03-29T12:48:44;94318.72;;;22.27;33.06
6389;BME280;3227;42.654;23.360;2024-03-29T12:51:11;94436.44;;;22.95;32.99
6389;BME280;3227;42.654;23.360;2024-03-29T12:53:39;94394.56;;;22.79;33.27
6389;BME280;3227;42.654;23.360;2024-03-29T12:56:07;94418.75;;;23.00;33.17
6389;BME280;3227;42.654;23.360;2024-03-29T12:58:34;94427.13;;;23.06;32.90
6389;BME280;3227;42.654;23.360;2024-03-29T13:01:01;94418.56;;;23.04;32.89
6389;BME280;3227;42.654;23.360;2024-03-29T13:03:29;94414.31;;;23.02;32.70
6389;BME280;3227;42.654;23.360;2024-03-29T13:05:55;94416.16;;;23.00;32.78
6389;BME280;3227;42.654;23.360;2024-03-29T13:08:22;94322.81;;;22.33;32.72
6389;BME280;3227;42.654;23.360;2024-03-29T13:10:49;94396.31;;;22.79;32.65
6389;BME280;3227;42.654;23.360;2024-03-29T13:13:17;94409.47;;;22.94;32.85